Time;durP1;ratioP1;P1;durP2;ratioP2;P2;SDS_P1;SDS_P2;PMS_P1;PMS_P2;Temp;Humidity;BMP_temperature;BMP_pressure;BME280_temperature;BME280_humidity;BME280_pressure;Samples;Min_cycle;Max_cycle;Signal;HPM_P1;HPM_P2
2022/05/02 00:00:29;;;;;;;10.80;9.70;;;8.00;34.60;;;;;;5032466;28;20171;-70
2022/05/02 00:02:55;;;;;;;11.60;10.33;;;8.10;33.90;;;;;;5032455;28;20282;-71
2022/05/02 00:05:20;;;;;;;12.70;10.40;;;8.10;33.70;;;;;;5032123;28;20192;-70
2022/05/02 00:07:46;;;;;;;11.80;9.87;;;8.10;33.70;;;;;;5031980;28;20180;-70
2022/05/02 00:10:12;;;;;;;12.40;10.70;;;8.10;33.60;;;;;;5032083;28;20187;-70
2022/05/02 00:12:39;;;;;;;14.50;11.77;;;8.10;33.70;;;;;;5030693;28;20676;-70
2022/05/02 00:15:05;;;;;;;11.50;10.23;;;8.00;33.90;;;;;;5032076;28;20485;-70
2022/05/02 00:20:16;;;;;;;9.53;8.57;;;8.00;34.30;;;;;;5031994;28;20413;-70
2022/05/02 00:22:42;;;;;;;11.60;10.43;;;8.00;34.40;;;;;;5031966;28;20917;-70
2022/05/02 00:25:08;;;;;;;14.53;10.50;;;7.90;34.40;;;;;;5031944;28;20441;-71
2022/05/02 00:27:34;;;;;;;12.40;10.43;;;7.80;34.90;;;;;;5031869;28;20547;-70
2022/05/02 00:30:00;;;;;;;13.13;10.90;;;7.70;35.20;;;;;;5031867;28;20413;-70
2022/05/02 00:32:25;;;;;;;12.80;9.70;;;7.70;35.20;;;;;;5032037;28;20429;-71
2022/05/02 00:34:51;;;;;;;11.80;10.30;;;7.70;35.20;;;;;;5031843;28;20446;-71
2022/05/02 00:37:18;;;;;;;9.87;9.03;;;7.80;34.30;;;;;;5031377;28;20243;-69
2022/05/02 00:39:44;;;;;;;10.67;9.70;;;7.80;34.40;;;;;;5031948;28;20699;-71
2022/05/02 00:42:09;;;;;;;10.70;9.70;;;7.70;34.10;;;;;;5031852;28;20406;-70
2022/05/02 00:44:35;;;;;;;11.33;9.77;;;7.60;34.40;;;;;;5031725;28;20794;-69
2022/05/02 00:47:00;;;;;;;13.00;10.73;;;7.60;34.50;;;;;;5031790;28;20244;-70
2022/05/02 00:49:26;;;;;;;13.00;10.67;;;7.60;34.30;;;;;;5031506;28;20186;-69
2022/05/02 00:51:51;;;;;;;12.23;10.77;;;7.50;34.20;;;;;;5030679;28;20274;-69
2022/05/02 00:54:17;;;;;;;15.13;11.60;;;7.50;34.20;;;;;;5032543;28;20213;-69
2022/05/02 00:56:43;;;;;;;10.90;9.77;;;7.40;34.70;;;;;;5031940;28;20587;-70
2022/05/02 00:59:14;;;;;;;13.13;9.47;;;7.30;34.90;;;;;;5031989;28;20266;-69
2022/05/02 01:01:40;;;;;;;11.70;9.80;;;7.30;34.90;;;;;;5035611;28;20175;-70
2022/05/02 01:04:05;;;;;;;12.20;8.87;;;7.30;35.00;;;;;;5035461;28;20457;-70
2022/05/02 01:09:15;;;;;;;13.80;10.20;;;7.20;35.50;;;;;;5035269;28;20190;-68
2022/05/02 01:11:41;;;;;;;12.80;11.33;;;7.20;35.40;;;;;;5035718;28;20426;-70
2022/05/02 01:14:09;;;;;;;12.90;10.27;;;7.20;34.80;;;;;;5034377;28;20241;-69
2022/05/02 01:16:35;;;;;;;10.23;9.00;;;7.20;35.70;;;;;;5035141;28;20309;-70
2022/05/02 01:19:01;;;;;;;11.10;9.90;;;7.10;35.40;;;;;;5035115;28;20431;-70
2022/05/02 01:21:31;;;;;;;12.57;10.00;;;7.10;35.50;;;;;;5033846;28;20270;-69
2022/05/02 01:24:03;;;;;;;11.30;9.70;;;7.10;36.20;;;;;;5035061;28;20194;-71
2022/05/02 01:26:29;;;;;;;16.97;11.63;;;7.10;36.30;;;;;;5035074;28;20421;-70
2022/05/02 01:28:57;;;;;;;20.63;11.50;;;7.20;35.50;;;;;;5034937;28;20512;-70
2022/05/02 01:31:23;;;;;;;11.70;10.50;;;7.30;35.80;;;;;;5034966;28;20827;-69
2022/05/02 01:33:49;;;;;;;15.93;11.60;;;7.20;35.90;;;;;;5034882;28;20431;-69
2022/05/02 01:36:17;;;;;;;12.10;10.90;;;7.10;36.20;;;;;;5034824;28;20224;-70
2022/05/02 01:38:43;;;;;;;12.13;10.90;;;7.10;35.70;;;;;;5033267;28;20420;-68
2022/05/02 01:41:08;;;;;;;16.47;9.27;;;7.00;35.30;;;;;;5034883;28;20420;-68
2022/05/02 01:43:36;;;;;;;11.97;10.40;;;6.90;35.90;;;;;;5034642;28;20954;-69
2022/05/02 01:46:04;;;;;;;12.40;10.80;;;6.90;35.80;;;;;;5033479;28;20422;-69
2022/05/02 01:48:30;;;;;;;13.83;10.20;;;6.90;36.60;;;;;;5034356;28;20413;-70
2022/05/02 01:50:57;;;;;;;14.33;11.03;;;6.80;36.20;;;;;;5033347;28;20914;-70
2022/05/02 01:53:23;;;;;;;13.97;10.23;;;6.90;36.60;;;;;;5034470;28;20216;-70
2022/05/02 01:55:48;;;;;;;15.17;12.13;;;6.80;36.60;;;;;;5034469;28;20805;-70
2022/05/02 01:58:14;;;;;;;14.77;11.40;;;6.80;37.20;;;;;;5032966;28;20516;-70
2022/05/02 02:00:40;;;;;;;13.10;11.75;;;6.80;37.00;;;;;;5034368;28;20229;-70
2022/05/02 02:03:06;;;;;;;16.83;13.87;;;6.90;37.00;;;;;;5034104;28;20226;-70
2022/05/02 02:05:49;;;;;;;12.83;11.40;;;6.90;36.60;;;;;;5091846;22;20247;-69
2022/05/02 02:08:24;;;;;;;14.13;11.70;;;6.90;36.70;;;;;;5074093;28;20180;-69
2022/05/02 02:10:51;;;;;;;13.23;11.63;;;6.80;37.40;;;;;;5072905;28;20913;-69
2022/05/02 02:13:17;;;;;;;11.95;10.15;;;6.70;37.30;;;;;;5074148;28;20176;-70
2022/05/02 02:15:43;;;;;;;15.63;11.87;;;6.70;37.10;;;;;;5073949;28;20204;-69
2022/05/02 02:18:09;;;;;;;13.37;12.07;;;6.60;37.10;;;;;;5073791;28;20179;-70
2022/05/02 02:20:35;;;;;;;13.38;12.18;;;6.70;37.40;;;;;;5073793;28;20498;-69
2022/05/02 02:23:02;;;;;;;14.80;12.65;;;6.60;36.80;;;;;;5073784;28;20177;-70
2022/05/02 02:25:27;;;;;;;13.85;9.95;;;6.60;36.90;;;;;;5073838;28;20191;-70
2022/05/02 02:27:53;;;;;;;12.80;10.70;;;6.60;37.10;;;;;;5073663;28;20184;-69
2022/05/02 02:30:19;;;;;;;15.70;11.93;;;6.50;37.50;;;;;;5073819;28;20539;-69
2022/05/02 02:32:45;;;;;;;17.57;13.17;;;6.40;37.00;;;;;;5073817;28;20409;-69
2022/05/02 02:35:11;;;;;;;15.38;11.32;;;6.40;37.50;;;;;;5073708;28;20195;-69
2022/05/02 02:37:37;;;;;;;17.13;11.30;;;6.40;37.00;;;;;;5072361;28;20258;-69
2022/05/02 02:40:03;;;;;;;11.47;10.37;;;6.30;36.90;;;;;;5073857;28;20889;-69
2022/05/02 02:42:29;;;;;;;14.43;11.10;;;6.30;37.90;;;;;;5073625;28;20251;-69
2022/05/02 02:44:54;;;;;;;15.00;11.50;;;6.30;37.00;;;;;;5072300;28;20365;-69
2022/05/02 02:47:20;;;;;;;16.33;11.67;;;6.30;37.70;;;;;;5073286;28;20241;-68
2022/05/02 02:49:45;;;;;;;17.70;11.90;;;6.30;37.40;;;;;;5073838;28;20179;-70
2022/05/02 02:52:11;;;;;;;18.90;14.07;;;6.30;37.90;;;;;;5072180;28;20182;-70
2022/05/02 02:54:37;;;;;;;13.57;10.33;;;6.40;37.40;;;;;;5073390;28;20446;-70
2022/05/02 02:57:02;;;;;;;16.27;12.37;;;6.50;37.30;;;;;;5071977;28;20246;-70
2022/05/02 02:59:28;;;;;;;10.97;9.37;;;6.50;37.20;;;;;;5073018;28;20538;-70
2022/05/02 03:01:55;;;;;;;13.80;11.33;;;6.40;36.90;;;;;;5071990;28;20184;-69
2022/05/02 03:07:05;;;;;;;13.07;11.13;;;6.30;37.00;;;;;;5073406;28;20260;-70
2022/05/02 03:09:31;;;;;;;13.87;10.73;;;6.20;37.70;;;;;;5072880;28;20681;-70
2022/05/02 03:11:58;;;;;;;15.50;12.23;;;6.20;37.50;;;;;;5073109;28;20187;-67
2022/05/02 03:14:23;;;;;;;13.32;11.80;;;6.10;37.60;;;;;;5072997;28;20688;-68
2022/05/02 03:16:49;;;;;;;11.90;10.47;;;6.10;37.70;;;;;;5073016;28;20207;-67
2022/05/02 03:19:14;;;;;;;16.87;12.10;;;6.10;39.00;;;;;;5072740;28;20209;-68
2022/05/02 03:21:40;;;;;;;14.13;10.70;;;6.20;38.00;;;;;;5072802;28;20182;-68
2022/05/02 03:24:06;;;;;;;14.80;12.93;;;6.20;37.50;;;;;;5072637;28;20274;-67
2022/05/02 03:26:31;;;;;;;14.40;12.17;;;6.30;37.50;;;;;;5072724;28;20197;-67
2022/05/02 03:28:57;;;;;;;12.63;9.40;;;6.20;37.60;;;;;;5072519;28;20910;-67
2022/05/02 03:31:23;;;;;;;14.30;11.13;;;6.30;38.00;;;;;;5072600;28;20641;-67
2022/05/02 03:33:48;;;;;;;15.30;11.13;;;6.30;37.90;;;;;;5072588;28;20198;-67
2022/05/02 03:36:14;;;;;;;20.23;13.90;;;6.30;38.30;;;;;;5071154;28;20302;-67
2022/05/02 03:38:39;;;;;;;13.23;11.17;;;6.20;38.20;;;;;;5070865;28;20233;-66
2022/05/02 03:41:05;;;;;;;13.40;11.33;;;6.20;38.30;;;;;;5072442;28;20211;-67
2022/05/02 03:43:33;;;;;;;16.60;12.63;;;6.10;38.40;;;;;;5072330;28;20259;-67
2022/05/02 03:45:58;;;;;;;14.05;12.65;;;6.10;38.70;;;;;;5071338;28;20184;-67
2022/05/02 03:48:26;;;;;;;17.10;13.57;;;6.10;38.20;;;;;;5072105;28;20172;-67
2022/05/02 03:50:52;;;;;;;13.73;11.45;;;6.20;37.80;;;;;;5072605;28;20178;-67
2022/05/02 03:53:18;;;;;;;16.77;11.43;;;6.20;37.10;;;;;;5072256;28;20187;-67
2022/05/02 03:55:45;;;;;;;14.40;11.40;;;6.20;38.50;;;;;;5072214;28;20193;-67
2022/05/02 03:58:11;;;;;;;17.13;12.82;;;6.20;38.00;;;;;;5071964;28;20176;-67
2022/05/02 04:00:36;;;;;;;14.27;11.90;;;6.20;37.40;;;;;;5072292;28;20175;-67
2022/05/02 04:03:02;;;;;;;16.90;12.67;;;6.20;37.70;;;;;;5072175;28;20417;-67
2022/05/02 04:05:28;;;;;;;15.33;11.90;;;6.10;39.00;;;;;;5072011;28;20210;-67
2022/05/02 04:07:53;;;;;;;11.33;9.90;;;6.10;37.90;;;;;;5070601;28;20187;-67
2022/05/02 04:10:19;;;;;;;15.90;12.13;;;6.10;38.30;;;;;;5061561;28;20558;-67
2022/05/02 04:12:45;;;;;;;14.77;11.70;;;6.10;38.30;;;;;;5061448;28;20177;-67
2022/05/02 04:15:11;;;;;;;19.37;13.97;;;6.10;38.20;;;;;;5060648;28;20439;-67
2022/05/02 04:17:40;;;;;;;16.20;11.40;;;6.20;38.30;;;;;;5051871;28;20208;-67
2022/05/02 04:20:07;;;;;;;16.48;12.70;;;6.10;38.20;;;;;;5051882;28;20221;-67
2022/05/02 04:22:33;;;;;;;13.30;11.38;;;6.20;38.80;;;;;;5050776;28;20197;-67
2022/05/02 04:24:59;;;;;;;20.65;12.63;;;6.20;38.90;;;;;;5051798;28;20274;-67
2022/05/02 04:27:24;;;;;;;16.43;13.43;;;6.20;38.60;;;;;;5051666;28;20209;-67
2022/05/02 04:29:50;;;;;;;14.60;11.90;;;6.20;38.80;;;;;;5050512;28;20199;-67
2022/05/02 04:32:16;;;;;;;18.60;11.63;;;6.30;38.50;;;;;;5051836;28;20179;-67
2022/05/02 04:34:41;;;;;;;14.90;11.03;;;6.30;38.40;;;;;;5050916;28;20254;-68
2022/05/02 04:37:10;;;;;;;18.80;13.13;;;6.30;38.30;;;;;;5051439;28;20350;-67
2022/05/02 04:39:36;;;;;;;14.15;11.07;;;6.30;38.00;;;;;;5051648;28;20173;-67
2022/05/02 04:42:02;;;;;;;12.90;11.60;;;6.40;37.60;;;;;;5051625;28;20283;-67
2022/05/02 04:44:29;;;;;;;13.23;11.70;;;6.50;37.90;;;;;;5051740;28;20200;-67
2022/05/02 04:46:54;;;;;;;15.65;11.57;;;6.50;37.30;;;;;;5051399;28;20177;-67
2022/05/02 04:49:20;;;;;;;14.83;13.33;;;6.60;37.80;;;;;;5051243;28;20184;-67
2022/05/02 04:51:45;;;;;;;14.10;10.87;;;6.60;37.80;;;;;;5051458;28;20178;-67
2022/05/02 04:54:11;;;;;;;16.97;12.43;;;6.70;37.30;;;;;;5051406;28;20208;-67
2022/05/02 04:56:37;;;;;;;15.93;11.37;;;6.70;37.00;;;;;;5051510;28;20200;-68
2022/05/02 04:59:02;;;;;;;13.57;10.53;;;6.80;36.70;;;;;;5051205;28;20423;-67
2022/05/02 05:01:28;;;;;;;14.27;12.77;;;6.80;36.90;;;;;;5051645;28;20270;-66
2022/05/02 05:03:53;;;;;;;16.90;12.33;;;6.90;36.60;;;;;;5051298;28;20202;-67
2022/05/02 05:06:19;;;;;;;13.00;11.70;;;7.00;36.50;;;;;;5051578;28;20244;-67
2022/05/02 05:08:44;;;;;;;13.70;10.40;;;7.10;35.80;;;;;;5051106;28;20258;-67
2022/05/02 05:11:32;;;;;;;15.20;11.77;;;7.20;35.60;;;;;;5051238;28;20549;-68
2022/05/02 05:17:09;;;;;;;10.87;9.77;;;8.20;37.40;;;;;;5051152;28;20451;-67
2022/05/02 05:20:00;;;;;;;11.10;10.10;;;9.40;33.40;;;;;;5051068;28;20412;-68
2022/05/02 05:22:55;;;;;;;12.13;11.03;;;10.60;28.90;;;;;;5051324;28;20415;-68
2022/05/02 05:25:38;;;;;;;14.20;12.87;;;11.70;23.80;;;;;;5051593;28;20771;-69
2022/05/02 05:28:29;;;;;;;12.93;11.33;;;12.80;23.10;;;;;;5050999;28;20409;-69
2022/05/02 05:31:25;;;;;;;14.40;13.40;;;13.90;21.80;;;;;;5051072;28;20886;-69
2022/05/02 05:34:06;;;;;;;15.63;14.63;;;14.70;19.60;;;;;;5049864;28;20506;-69
2022/05/02 05:36:44;;;;;;;16.47;15.47;;;15.40;16.40;;;;;;5050923;28;20547;-69
2022/05/02 05:39:17;;;;;;;19.80;18.50;;;16.30;15.80;;;;;;5051339;28;20421;-70
2022/05/02 05:42:04;;;;;;;18.37;16.97;;;17.00;13.10;;;;;;5051059;28;20471;-70
2022/05/02 05:44:50;;;;;;;18.90;17.53;;;17.70;13.50;;;;;;5050849;28;20432;-69
2022/05/02 05:47:52;;;;;;;18.43;17.33;;;18.50;11.90;;;;;;5053086;28;20421;-69
2022/05/02 05:50:23;;;;;;;19.33;18.13;;;19.10;9.90;;;;;;5046153;28;20470;-71
2022/05/02 05:53:05;;;;;;;19.00;17.90;;;19.60;10.00;;;;;;5054227;28;20969;-69
2022/05/02 05:55:54;;;;;;;18.60;17.70;;;20.20;9.00;;;;;;5054474;28;20440;-69
2022/05/02 05:58:33;;;;;;;18.80;17.90;;;20.70;8.10;;;;;;5043388;28;20448;-69
2022/05/02 06:01:36;;;;;;;19.97;18.60;;;21.30;7.70;;;;;;5053084;28;20905;-69
2022/05/02 06:04:04;;;;;;;19.00;18.03;;;21.70;6.30;;;;;;5053847;28;20996;-68
2022/05/02 06:06:31;;;;;;;18.77;17.57;;;22.10;5.10;;;;;;5052881;28;20511;-69
2022/05/02 06:09:01;;;;;;;19.93;18.73;;;22.30;6.20;;;;;;5053840;28;20409;-70
2022/05/02 06:11:27;;;;;;;20.83;19.60;;;22.40;4.70;;;;;;5054164;28;20482;-69
2022/05/02 06:13:55;;;;;;;19.03;17.93;;;22.60;4.10;;;;;;5053890;28;20433;-69
2022/05/02 06:19:12;;;;;;;19.23;18.13;;;21.50;4.00;;;;;;5053651;28;20408;-69
2022/05/02 06:21:42;;;;;;;19.87;18.70;;;20.40;6.10;;;;;;5053904;28;20413;-69
2022/05/02 06:24:11;;;;;;;19.33;18.23;;;19.50;6.80;;;;;;5052510;28;20444;-69
2022/05/02 06:26:37;;;;;;;19.00;17.30;;;17.40;8.70;;;;;;5053931;28;20417;-70
2022/05/02 06:29:05;;;;;;;20.67;19.47;;;17.00;10.00;;;;;;5052391;28;20413;-70
2022/05/02 06:31:32;;;;;;;18.77;17.50;;;16.90;10.40;;;;;;5053835;28;20500;-70
2022/05/02 06:34:01;;;;;;;19.47;18.13;;;16.80;10.50;;;;;;5053831;28;20483;-70
2022/05/02 06:36:54;;;;;;;19.00;17.90;;;17.10;10.60;;;;;;5053697;28;20453;-70
2022/05/02 06:39:56;;;;;;;19.23;17.93;;;17.80;10.60;;;;;;5053772;28;20413;-69
2022/05/02 06:42:45;;;;;;;18.90;17.40;;;18.00;9.60;;;;;;5053800;28;20885;-69
2022/05/02 06:45:39;;;;;;;19.33;18.07;;;17.40;9.80;;;;;;5053587;28;20508;-69
2022/05/02 06:48:18;;;;;;;18.83;17.50;;;18.10;10.80;;;;;;5052164;28;20449;-69
2022/05/02 06:50:55;;;;;;;19.00;18.00;;;19.40;9.60;;;;;;5053459;28;20409;-69
2022/05/02 06:53:27;;;;;;;18.90;17.70;;;20.50;7.90;;;;;;5053267;28;20408;-69
2022/05/02 06:56:14;;;;;;;20.90;19.40;;;21.50;7.50;;;;;;5053074;28;20479;-69
2022/05/02 06:59:04;;;;;;;22.23;20.73;;;22.40;5.50;;;;;;5052384;28;20782;-67
2022/05/02 07:01:51;;;;;;;21.10;19.73;;;23.10;4.40;;;;;;5051907;28;20424;-70
2022/05/02 07:04:19;;;;;;;19.73;18.47;;;23.70;3.90;;;;;;5052066;28;20879;-68
2022/05/02 07:07:13;;;;;;;19.57;18.37;;;24.00;3.50;;;;;;5056474;28;20519;-69
2022/05/02 07:09:46;;;;;;;22.37;21.07;;;24.30;3.30;;;;;;5069568;28;20790;-69
2022/05/02 07:12:19;;;;;;;20.13;18.73;;;24.30;2.00;;;;;;5068523;28;20452;-69
2022/05/02 07:14:51;;;;;;;19.43;18.33;;;24.00;3.30;;;;;;5068594;28;20439;-68
2022/05/02 07:17:34;;;;;;;21.97;20.17;;;24.00;3.50;;;;;;5068279;28;20456;-70
2022/05/02 07:20:05;;;;;;;19.23;18.17;;;24.40;2.40;;;;;;5059721;28;20441;-70
2022/05/02 07:22:42;;;;;;;19.53;18.43;;;22.30;4.50;;;;;;5048133;28;21013;-70
2022/05/02 07:25:19;;;;;;;20.93;19.63;;;22.40;4.10;;;;;;5048429;28;20463;-69
2022/05/02 07:27:59;;;;;;;19.43;17.97;;;23.10;4.60;;;;;;5048267;28;20570;-71
2022/05/02 07:30:25;;;;;;;19.73;18.47;;;23.80;3.60;;;;;;5048213;28;20783;-72
2022/05/02 07:32:55;;;;;;;19.77;18.40;;;24.30;2.50;;;;;;5051856;28;20614;-71
2022/05/02 07:35:21;;;;;;;19.67;18.17;;;24.60;2.70;;;;;;5059802;28;20448;-71
2022/05/02 07:37:48;;;;;;;19.33;18.23;;;25.20;2.50;;;;;;5060697;28;20599;-71
2022/05/02 07:40:19;;;;;;;19.43;17.77;;;25.20;1.80;;;;;;5059796;28;20515;-71
2022/05/02 07:42:45;;;;;;;21.13;19.87;;;25.40;1.50;;;;;;5068072;28;20438;-71
2022/05/02 07:45:13;;;;;;;19.67;18.37;;;25.10;1.70;;;;;;5066060;28;20824;-71
2022/05/02 07:47:41;;;;;;;20.93;19.63;;;25.30;1.80;;;;;;5067726;28;20526;-72
2022/05/02 07:50:07;;;;;;;20.93;19.40;;;25.20;1.80;;;;;;5068561;28;20852;-70
2022/05/02 07:52:36;;;;;;;20.47;19.07;;;25.10;1.70;;;;;;5068352;28;20493;-71
2022/05/02 07:55:03;;;;;;;19.80;18.50;;;24.90;1.60;;;;;;5066620;28;20443;-71
2022/05/02 07:57:32;;;;;;;21.40;20.10;;;24.40;1.30;;;;;;5067246;28;20455;-71
2022/05/02 07:59:59;;;;;;;21.70;20.43;;;23.80;2.20;;;;;;5067177;28;20520;-71
2022/05/02 08:02:25;;;;;;;20.60;19.53;;;22.90;3.20;;;;;;5067933;28;20796;-71
2022/05/02 08:04:54;;;;;;;20.70;19.13;;;22.30;4.00;;;;;;5067877;28;20457;-69
2022/05/02 08:07:25;;;;;;;21.10;19.80;;;21.80;3.50;;;;;;5068096;28;20186;-68
2022/05/02 08:10:15;;;;;;;22.10;20.63;;;21.40;4.30;;;;;;5063557;28;20510;-70
2022/05/02 08:12:57;;;;;;;19.23;18.13;;;21.30;3.90;;;;;;5047472;28;20427;-72
2022/05/02 08:15:37;;;;;;;20.23;19.03;;;20.70;3.90;;;;;;5047345;28;20794;-70
2022/05/02 08:18:14;;;;;;;22.17;20.70;;;20.60;5.40;;;;;;5047461;28;20575;-71
2022/05/02 08:20:56;;;;;;;22.00;20.70;;;19.90;7.50;;;;;;5068000;28;20437;-70
2022/05/02 08:27:17;;;;;;;19.50;18.30;;;20.00;5.50;;;;;;5068068;28;20439;-73
2022/05/02 08:29:48;;;;;;;18.63;17.27;;;18.30;8.30;;;;;;5051975;28;20471;-72
2022/05/02 08:33:00;;;;;;;19.80;18.47;;;18.40;9.30;;;;;;5048165;28;21031;-72
2022/05/02 08:35:58;;;;;;;19.27;17.97;;;19.10;8.30;;;;;;5006399;28;20449;-73
2022/05/02 08:38:33;;;;;;;20.50;19.00;;;18.40;9.10;;;;;;5047701;28;20421;-71
2022/05/02 08:41:28;;;;;;;17.57;16.57;;;17.20;10.40;;;;;;5058084;28;20833;-71
2022/05/02 08:44:31;;;;;;;19.37;17.87;;;17.50;10.90;;;;;;5067510;28;20961;-72
2022/05/02 08:47:31;;;;;;;19.33;18.20;;;18.20;9.70;;;;;;5068676;28;20498;-70
2022/05/02 08:50:25;;;;;;;18.70;17.53;;;18.90;9.20;;;;;;5065966;28;20860;-68
2022/05/02 08:53:12;;;;;;;19.70;18.50;;;17.40;10.30;;;;;;5047269;28;20492;-68
2022/05/02 08:56:02;;;;;;;20.83;19.30;;;16.90;11.70;;;;;;5066828;28;20440;-69
2022/05/02 08:59:15;;;;;;;19.77;18.47;;;17.20;11.70;;;;;;5067057;28;20424;-69
2022/05/02 09:02:14;;;;;;;23.33;21.00;;;17.30;11.90;;;;;;5050248;28;20444;-70
2022/05/02 09:05:09;;;;;;;21.17;19.70;;;17.10;11.90;;;;;;5066574;28;20504;-70
2022/05/02 09:08:11;;;;;;;22.50;20.67;;;17.10;11.80;;;;;;5067236;28;20427;-70
2022/05/02 09:10:46;;;;;;;21.53;20.20;;;17.00;12.90;;;;;;5066958;28;20420;-70
2022/05/02 09:13:29;;;;;;;21.17;19.70;;;16.90;12.60;;;;;;5047299;28;20558;-69
2022/05/02 09:16:29;;;;;;;19.27;18.00;;;16.70;13.40;;;;;;5048110;28;21377;-69
2022/05/02 09:19:07;;;;;;;20.63;19.23;;;16.70;13.20;;;;;;5027130;28;20425;-69
2022/05/02 09:22:25;;;;;;;19.50;18.17;;;17.00;13.20;;;;;;5054530;28;20427;-68
2022/05/02 09:25:03;;;;;;;20.03;18.67;;;17.10;13.00;;;;;;5051131;28;20531;-68
2022/05/02 09:27:57;;;;;;;20.47;19.10;;;16.30;14.00;;;;;;5069119;28;20431;-68
2022/05/02 09:30:47;;;;;;;17.70;16.50;;;16.50;14.10;;;;;;5070083;28;20416;-69
2022/05/02 09:33:35;;;;;;;18.07;16.87;;;16.60;13.40;;;;;;5051306;28;20454;-68
2022/05/02 09:36:14;;;;;;;18.57;17.30;;;16.90;13.10;;;;;;5051014;28;20424;-70
2022/05/02 09:38:51;;;;;;;20.00;18.57;;;17.00;14.00;;;;;;5050760;28;20945;-68
2022/05/02 09:41:32;;;;;;;18.67;17.23;;;16.70;13.00;;;;;;5060562;28;20434;-70
2022/05/02 09:50:10;;;;;;;17.57;16.20;;;16.70;13.50;;;;;;5070850;28;20854;-68
2022/05/02 09:52:58;;;;;;;18.73;17.47;;;17.20;13.30;;;;;;5070688;28;20416;-70
2022/05/02 09:58:46;;;;;;;18.23;16.93;;;17.10;12.10;;;;;;5074749;28;20458;-68
2022/05/02 10:01:22;;;;;;;19.23;17.80;;;17.60;12.30;;;;;;5073898;28;20781;-69
2022/05/02 10:04:12;;;;;;;17.83;16.60;;;18.00;12.10;;;;;;5074332;28;20447;-68
2022/05/02 10:06:46;;;;;;;17.43;16.33;;;18.50;11.50;;;;;;5066472;28;21036;-69
2022/05/02 10:09:51;;;;;;;19.03;17.73;;;18.40;10.10;;;;;;5063202;28;20420;-69
2022/05/02 10:12:42;;;;;;;19.70;18.30;;;18.30;10.90;;;;;;5053440;28;20798;-69
2022/05/02 10:15:13;;;;;;;19.17;18.03;;;18.50;11.10;;;;;;5073866;28;20443;-69
2022/05/02 10:17:51;;;;;;;18.77;17.43;;;18.00;10.70;;;;;;5074222;28;20460;-68
2022/05/02 10:20:19;;;;;;;20.10;18.87;;;18.30;11.70;;;;;;5073499;28;20415;-70
2022/05/02 10:23:06;;;;;;;20.77;19.40;;;18.60;11.10;;;;;;5074006;28;20408;-70
2022/05/02 10:25:43;;;;;;;19.70;18.43;;;18.30;11.10;;;;;;5073901;28;20432;-68
2022/05/02 10:28:46;;;;;;;17.47;16.30;;;18.50;11.00;;;;;;5072214;28;20443;-68
2022/05/02 10:31:27;;;;;;;18.63;17.37;;;18.60;10.20;;;;;;5073585;28;20423;-69
2022/05/02 10:33:54;;;;;;;18.80;17.60;;;18.50;10.50;;;;;;5073531;28;20853;-68
2022/05/02 10:36:27;;;;;;;18.40;17.10;;;18.60;10.10;;;;;;5073598;28;20460;-69
2022/05/02 10:39:04;;;;;;;19.23;18.13;;;19.00;10.40;;;;;;5073615;28;20473;-68
2022/05/02 10:41:39;;;;;;;17.70;16.70;;;18.70;9.00;;;;;;5073850;28;20408;-71
2022/05/02 10:44:06;;;;;;;18.50;17.40;;;18.50;8.60;;;;;;5073521;28;20489;-67
2022/05/02 10:46:33;;;;;;;19.23;17.83;;;18.00;9.70;;;;;;5073566;28;20448;-68
2022/05/02 10:49:45;;;;;;;18.43;16.90;;;18.10;9.90;;;;;;5073588;28;20464;-69
2022/05/02 10:52:49;;;;;;;18.03;16.90;;;18.60;9.40;;;;;;5073641;28;20455;-69
2022/05/02 10:56:00;;;;;;;16.60;15.70;;;19.00;9.20;;;;;;5073405;28;20928;-69
2022/05/02 10:58:34;;;;;;;16.30;15.50;;;18.60;8.40;;;;;;5062365;28;20428;-70
2022/05/02 11:01:17;;;;;;;16.83;15.83;;;18.60;8.60;;;;;;5073448;28;20432;-69
2022/05/02 11:04:06;;;;;;;16.57;15.67;;;18.60;7.80;;;;;;5073245;28;20459;-69
2022/05/02 11:06:54;;;;;;;16.57;15.60;;;18.80;8.20;;;;;;5053701;28;20793;-69
2022/05/02 11:09:54;;;;;;;17.67;16.67;;;19.20;7.20;;;;;;5073031;28;20412;-69
2022/05/02 11:12:22;;;;;;;16.30;15.43;;;19.80;6.40;;;;;;5070836;28;20436;-69
2022/05/02 11:15:07;;;;;;;15.80;15.00;;;20.20;6.40;;;;;;5072998;28;20508;-69
2022/05/02 11:18:08;;;;;;;15.97;15.17;;;20.40;6.00;;;;;;5072899;28;20498;-69
2022/05/02 11:20:49;;;;;;;16.37;15.57;;;20.10;5.50;;;;;;5073447;28;20495;-70
2022/05/02 11:23:30;;;;;;;17.00;16.10;;;20.40;4.90;;;;;;5073204;28;20404;-69
2022/05/02 11:26:20;;;;;;;17.00;16.20;;;20.70;4.80;;;;;;5073453;28;20408;-69
2022/05/02 11:28:48;;;;;;;16.90;15.90;;;20.40;4.00;;;;;;5072663;28;20458;-69
2022/05/02 11:31:28;;;;;;;16.33;15.53;;;20.50;5.40;;;;;;5072997;28;20451;-68
2022/05/02 11:34:06;;;;;;;16.00;15.20;;;21.10;5.10;;;;;;5072528;28;20503;-68
2022/05/02 11:36:38;;;;;;;16.73;16.00;;;21.40;4.70;;;;;;5072347;28;20479;-69
2022/05/02 11:39:07;;;;;;;17.10;16.30;;;21.30;3.30;;;;;;5072202;28;20889;-67
2022/05/02 11:41:34;;;;;;;17.80;16.87;;;21.20;3.60;;;;;;5072403;28;20426;-67
2022/05/02 11:44:12;;;;;;;18.13;17.13;;;21.00;3.70;;;;;;5070944;28;20941;-67
2022/05/02 11:47:15;;;;;;;16.40;15.60;;;21.20;3.80;;;;;;5062735;28;20433;-69
2022/05/02 11:50:06;;;;;;;16.53;15.73;;;21.10;4.70;;;;;;5055775;28;20424;-68
2022/05/02 11:52:38;;;;;;;17.10;16.10;;;21.40;4.80;;;;;;5070245;28;20439;-69
2022/05/02 11:55:06;;;;;;;17.80;16.90;;;21.60;4.00;;;;;;5072044;28;20432;-68
2022/05/02 11:57:41;;;;;;;17.70;16.60;;;21.10;3.60;;;;;;5071690;28;20459;-69
2022/05/02 12:00:09;;;;;;;16.63;15.50;;;20.30;4.30;;;;;;5072078;28;20407;-70
2022/05/02 12:02:38;;;;;;;17.97;17.07;;;19.70;4.70;;;;;;5072066;28;20491;-68
2022/05/02 12:05:25;;;;;;;17.97;16.83;;;19.70;5.10;;;;;;5072417;28;20506;-69
2022/05/02 12:08:00;;;;;;;16.90;15.90;;;19.90;5.00;;;;;;5071382;28;20790;-69
2022/05/02 12:10:35;;;;;;;16.20;15.40;;;20.10;4.90;;;;;;5072405;28;20816;-69
2022/05/02 12:13:01;;;;;;;16.17;15.13;;;20.40;4.80;;;;;;5071929;28;20747;-69
2022/05/02 12:15:27;;;;;;;17.77;16.67;;;20.70;5.00;;;;;;5071914;28;20439;-69
2022/05/02 12:17:59;;;;;;;16.90;16.10;;;21.10;4.60;;;;;;5071618;28;20455;-69
2022/05/02 12:20:29;;;;;;;17.60;16.50;;;21.40;3.90;;;;;;5071861;28;20458;-71
2022/05/02 12:23:22;;;;;;;17.03;16.13;;;21.70;3.60;;;;;;5072318;28;20775;-73
2022/05/02 12:25:54;;;;;;;16.10;15.30;;;21.80;2.30;;;;;;5069927;28;20455;-69
2022/05/02 12:28:37;;;;;;;17.20;16.30;;;21.70;2.90;;;;;;5071540;28;20423;-69
2022/05/02 12:31:06;;;;;;;17.97;16.67;;;21.50;3.20;;;;;;5071475;28;20511;-69
2022/05/02 12:33:34;;;;;;;17.67;16.77;;;20.70;3.50;;;;;;5071202;28;20755;-69
2022/05/02 12:36:00;;;;;;;16.63;15.83;;;21.00;3.40;;;;;;5071384;28;20902;-70
2022/05/02 12:38:28;;;;;;;15.60;14.70;;;21.00;3.20;;;;;;5070082;28;20420;-70
2022/05/02 12:41:01;;;;;;;16.63;15.63;;;21.30;3.60;;;;;;5070478;28;20416;-70
2022/05/02 12:43:39;;;;;;;15.70;14.97;;;21.20;3.40;;;;;;5071571;28;20404;-68
2022/05/02 12:46:07;;;;;;;15.40;14.70;;;20.80;3.50;;;;;;5055362;28;20561;-68
2022/05/02 12:48:38;;;;;;;15.10;14.40;;;20.60;3.80;;;;;;5071883;28;20767;-69
2022/05/02 12:51:09;;;;;;;16.53;15.63;;;20.40;3.10;;;;;;5071752;28;20416;-70
2022/05/02 12:56:19;;;;;;;15.77;14.97;;;20.60;4.20;;;;;;5074556;28;20983;-69
2022/05/02 13:01:44;;;;;;;15.63;14.80;;;20.60;3.70;;;;;;5071349;28;20195;-70
2022/05/02 13:04:18;;;;;;;16.50;15.47;;;21.00;3.60;;;;;;5071052;28;20589;-70
2022/05/02 13:06:45;;;;;;;16.67;15.77;;;20.90;2.70;;;;;;5060617;28;20425;-69
2022/05/02 13:09:14;;;;;;;15.03;14.43;;;21.10;2.10;;;;;;5051671;28;20929;-70
2022/05/02 13:11:40;;;;;;;15.43;14.63;;;20.90;1.50;;;;;;5050071;28;20433;-70
2022/05/02 13:14:06;;;;;;;14.73;14.13;;;21.10;2.10;;;;;;5050826;28;20444;-69
2022/05/02 13:16:33;;;;;;;16.27;15.40;;;21.70;2.30;;;;;;5050023;28;20468;-69
2022/05/02 13:19:03;;;;;;;16.23;15.47;;;22.00;1.50;;;;;;5050063;28;20413;-69
2022/05/02 13:21:29;;;;;;;16.93;15.90;;;21.50;1.60;;;;;;5050391;28;20417;-70
2022/05/02 13:24:07;;;;;;;16.00;15.30;;;21.40;1.60;;;;;;5050048;28;20456;-71
2022/05/02 13:26:40;;;;;;;16.10;15.33;;;21.70;1.90;;;;;;5050486;28;20456;-69
2022/05/02 13:29:39;;;;;;;16.43;15.50;;;21.70;1.60;;;;;;5050730;28;20428;-70
2022/05/02 13:32:13;;;;;;;16.50;15.80;;;21.90;1.60;;;;;;5050973;28;20416;-69
2022/05/02 13:35:05;;;;;;;15.87;15.10;;;22.10;1.30;;;;;;5050713;28;20433;-70
2022/05/02 13:37:51;;;;;;;16.60;15.80;;;22.10;1.70;;;;;;5049275;28;20499;-71
2022/05/02 13:40:20;;;;;;;15.10;14.40;;;21.90;1.50;;;;;;5049787;28;20417;-70
2022/05/02 13:42:50;;;;;;;14.93;14.23;;;22.00;2.10;;;;;;5049923;28;20483;-69